createdAt,value
2023-04-04T00:00:39.926Z,102362.02
2023-04-04T00:03:11.157Z,102360.21
2023-04-04T00:05:41.942Z,102362.52
2023-04-04T00:08:13.439Z,102362.67
2023-04-04T00:10:43.994Z,102367.02
2023-04-04T00:13:15.409Z,102367.07
2023-04-04T00:15:46.888Z,102367.33
2023-04-04T00:18:18.752Z,102364.60
2023-04-04T00:20:49.434Z,102363.57
2023-04-04T00:23:20.090Z,102367.59
2023-04-04T00:25:53.379Z,102365.80
2023-04-04T00:28:24.591Z,102364.44
2023-04-04T00:30:55.557Z,102363.39
2023-04-04T00:33:26.413Z,102363.37
2023-04-04T00:35:57.096Z,102363.23
2023-04-04T00:38:29.605Z,102361.23
2023-04-04T00:41:00.549Z,102363.80
2023-04-04T00:43:32.624Z,102363.96
2023-04-04T00:46:03.938Z,102365.98
2023-04-04T00:48:34.526Z,102363.94
2023-04-04T00:51:05.667Z,102362.52
2023-04-04T00:53:36.109Z,102364.18
2023-04-04T00:56:07.085Z,102360.63
2023-04-04T00:58:37.872Z,102362.14
2023-04-04T01:01:10.841Z,102358.98
2023-04-04T01:03:41.702Z,102358.52
2023-04-04T01:06:12.424Z,102357.58
2023-04-04T01:08:44.568Z,102360.66
2023-04-04T01:11:15.662Z,102357.66
2023-04-04T01:13:46.144Z,102353.65
2023-04-04T01:16:16.675Z,102350.58
2023-04-04T01:18:48.093Z,102350.70
2023-04-04T01:21:21.879Z,102351.42
2023-04-04T01:24:00.206Z,102354.44
2023-04-04T01:26:31.278Z,102358.67
2023-04-04T01:29:02.371Z,102351.95
2023-04-04T01:31:38.382Z,102355.82
2023-04-04T01:34:17.778Z,102348.94
2023-04-04T01:36:54.677Z,102347.59
2023-04-04T01:39:32.568Z,102344.38
2023-04-04T01:42:04.464Z,102343.73
2023-04-04T01:44:35.682Z,102342.98
2023-04-04T01:47:08.867Z,102342.23
2023-04-04T01:49:39.597Z,102343.23
2023-04-04T01:52:10.158Z,102342.08
2023-04-04T01:54:40.515Z,102340.08
2023-04-04T01:57:11.271Z,102338.95
2023-04-04T01:59:42.000Z,102339.52
2023-04-04T02:02:12.366Z,102340.42
2023-04-04T02:04:43.222Z,102335.46
2023-04-04T02:07:14.216Z,102332.13
2023-04-04T02:09:44.603Z,102327.91
2023-04-04T02:12:15.127Z,102326.59
2023-04-04T02:14:45.926Z,102327.02
2023-04-04T02:17:16.209Z,102330.48
2023-04-04T02:19:46.489Z,102323.41
2023-04-04T02:22:16.761Z,102321.41
2023-04-04T02:24:47.061Z,102314.93
2023-04-04T02:27:17.332Z,102313.77
2023-04-04T02:29:48.627Z,102311.23
2023-04-04T02:32:18.950Z,102309.16
2023-04-04T02:34:49.268Z,102309.45
2023-04-04T02:37:19.539Z,102306.52
2023-04-04T02:39:49.812Z,102303.96
2023-04-04T02:42:20.077Z,102305.34
2023-04-04T02:44:50.376Z,102300.65
2023-04-04T02:47:20.700Z,102298.42
2023-04-04T02:49:51.033Z,102294.79
2023-04-04T02:52:23.131Z,102297.11
2023-04-04T02:54:53.486Z,102293.63
2023-04-04T02:57:24.160Z,102291.59
2023-04-04T02:59:54.459Z,102290.70
2023-04-04T03:02:26.680Z,102285.46
2023-04-04T03:04:57.085Z,102282.70
2023-04-04T03:07:27.839Z,102275.39
2023-04-04T03:09:58.589Z,102271.81
2023-04-04T03:12:29.534Z,102269.21
2023-04-04T03:14:59.877Z,102266.80
2023-04-04T03:17:30.266Z,102265.20
2023-04-04T03:20:00.610Z,102267.13
2023-04-04T03:22:31.441Z,102266.33
2023-04-04T03:25:01.906Z,102263.81
2023-04-04T03:27:33.353Z,102265.28
2023-04-04T03:30:05.309Z,102265.59
2023-04-04T03:32:35.670Z,102262.21
2023-04-04T03:35:08.006Z,102254.66
2023-04-04T03:37:38.328Z,102260.18
2023-04-04T03:40:10.667Z,102262.16
2023-04-04T03:42:41.672Z,102261.46
2023-04-04T03:45:13.613Z,102262.83
2023-04-04T03:47:43.940Z,102258.13
2023-04-04T03:50:14.557Z,102252.13
2023-04-04T03:52:45.240Z,102250.73
2023-04-04T03:55:16.615Z,102250.34
2023-04-04T03:57:47.796Z,102254.70
2023-04-04T04:00:18.906Z,102252.69
2023-04-04T04:02:49.332Z,102247.67
2023-04-04T04:05:20.233Z,102246.65
2023-04-04T04:07:52.858Z,102246.66
2023-04-04T04:10:23.279Z,102247.40
2023-04-04T04:12:54.025Z,102244.73
2023-04-04T04:15:24.581Z,102244.98
2023-04-04T04:17:54.951Z,102243.11
2023-04-04T04:20:25.913Z,102241.97
2023-04-04T04:22:56.438Z,102240.45
2023-04-04T04:25:27.371Z,102243.52
2023-04-04T04:27:59.130Z,102242.21
2023-04-04T04:30:29.519Z,102245.19
2023-04-04T04:32:59.913Z,102245.04
2023-04-04T04:35:30.726Z,102245.29
2023-04-04T04:38:01.073Z,102244.70
2023-04-04T04:40:31.865Z,102247.15
2023-04-04T04:43:02.556Z,102245.46
2023-04-04T04:45:32.840Z,102246.92
2023-04-04T04:48:03.659Z,102244.59
2023-04-04T04:50:34.447Z,102249.27
2023-04-04T04:53:05.057Z,102249.32
2023-04-04T04:55:36.568Z,102247.29
2023-04-04T04:58:07.111Z,102250.91
2023-04-04T05:00:39.324Z,102250.71
2023-04-04T05:03:10.216Z,102254.60
2023-04-04T05:05:41.157Z,102258.61
2023-04-04T05:08:11.523Z,102259.48
2023-04-04T05:10:42.538Z,102263.70
2023-04-04T05:13:14.015Z,102262.95
2023-04-04T05:15:44.739Z,102266.89
2023-04-04T05:18:15.114Z,102271.30
2023-04-04T05:20:50.983Z,102271.23
2023-04-04T05:23:21.355Z,102277.36
2023-04-04T05:25:53.312Z,102280.35
2023-04-04T05:28:23.802Z,102282.84
2023-04-04T05:30:56.594Z,102284.17
2023-04-04T05:33:28.116Z,102288.33
2023-04-04T05:35:58.520Z,102289.80
2023-04-04T05:38:29.605Z,102286.64
2023-04-04T05:41:00.279Z,102294.52
2023-04-04T05:43:31.170Z,102293.06
2023-04-04T05:46:01.967Z,102297.30
2023-04-04T05:48:32.412Z,102299.64
2023-04-04T05:51:02.799Z,102296.02
2023-04-04T05:53:33.661Z,102292.49
2023-04-04T05:56:04.217Z,102293.17
2023-04-04T05:58:34.647Z,102296.41
2023-04-04T06:01:10.618Z,102295.29
2023-04-04T06:03:41.700Z,102296.52
2023-04-04T06:06:12.376Z,102294.23
2023-04-04T06:08:53.015Z,102297.63
2023-04-04T06:11:24.726Z,102296.05
2023-04-04T06:13:55.751Z,102297.60
2023-04-04T06:16:27.219Z,102299.98
2023-04-04T06:18:58.869Z,102296.27
2023-04-04T06:21:29.407Z,102302.23
2023-04-04T06:24:00.165Z,102299.88
2023-04-04T06:26:31.146Z,102301.73
2023-04-04T06:29:02.182Z,102303.58
2023-04-04T06:31:32.972Z,102303.76
2023-04-04T06:34:03.359Z,102304.41
2023-04-04T06:36:33.980Z,102301.95
2023-04-04T06:39:04.371Z,102298.13
2023-04-04T06:41:34.941Z,102301.32
2023-04-04T06:44:05.579Z,102300.63
2023-04-04T06:46:37.895Z,102300.60
2023-04-04T06:49:08.288Z,102300.55
2023-04-04T06:51:41.230Z,102302.41
2023-04-04T06:54:12.459Z,102302.55
2023-04-04T06:56:43.239Z,102305.98
2023-04-04T06:59:14.337Z,102304.65
2023-04-04T07:01:45.139Z,102309.61
2023-04-04T07:04:15.457Z,102311.58
2023-04-04T07:06:45.792Z,102313.11
2023-04-04T07:09:28.187Z,102315.70
2023-04-04T07:11:59.791Z,102317.89
2023-04-04T07:14:30.202Z,102317.92
2023-04-04T07:17:03.663Z,102311.09
2023-04-04T07:19:38.756Z,102311.21
2023-04-04T07:22:09.180Z,102310.60
2023-04-04T07:24:39.682Z,102309.44
2023-04-04T07:27:11.205Z,102310.10
2023-04-04T07:29:41.547Z,102313.16
2023-04-04T07:32:12.250Z,102311.78
2023-04-04T07:34:42.855Z,102312.35
2023-04-04T07:37:13.521Z,102312.33
2023-04-04T07:39:44.645Z,102315.94
2023-04-04T07:42:15.024Z,102319.23
2023-04-04T07:44:45.691Z,102319.01
2023-04-04T07:47:16.057Z,102318.63
2023-04-04T07:49:46.658Z,102313.14
2023-04-04T07:52:17.297Z,102317.50
2023-04-04T07:54:48.316Z,102316.05
2023-04-04T07:57:18.745Z,102317.80
2023-04-04T07:59:49.535Z,102314.61
2023-04-04T08:02:20.556Z,102313.64
2023-04-04T08:04:50.970Z,102313.89
2023-04-04T08:07:21.340Z,102311.96
2023-04-04T08:09:52.346Z,102309.29
2023-04-04T08:12:22.697Z,102308.58
2023-04-04T08:14:53.717Z,102305.74
2023-04-04T08:17:24.694Z,102300.84
2023-04-04T08:19:55.287Z,102303.29
2023-04-04T08:22:27.044Z,102305.80
2023-04-04T08:24:57.758Z,102304.84
2023-04-04T08:27:28.461Z,102306.73
2023-04-04T08:29:59.214Z,102308.83
2023-04-04T08:32:30.273Z,102304.92
2023-04-04T08:35:00.652Z,102303.42
2023-04-04T08:37:31.360Z,102300.89
2023-04-04T08:40:01.685Z,102296.66
2023-04-04T08:42:35.795Z,102294.53
2023-04-04T08:45:09.405Z,102292.86
2023-04-04T08:47:40.871Z,102294.51
2023-04-04T08:50:11.774Z,102288.45
2023-04-04T08:52:45.034Z,102284.83
2023-04-04T08:55:16.257Z,102284.06
2023-04-04T08:57:47.269Z,102279.63
2023-04-04T09:00:21.446Z,102279.69
2023-04-04T09:02:57.912Z,102271.56
2023-04-04T09:05:29.014Z,102272.47
2023-04-04T09:08:00.734Z,102270.40
2023-04-04T09:10:31.903Z,102271.88
2023-04-04T09:13:14.932Z,102270.64
2023-04-04T09:15:50.984Z,102268.38
2023-04-04T09:18:21.766Z,102263.16
2023-04-04T09:20:53.110Z,102263.36
2023-04-04T09:23:25.013Z,102260.17
2023-04-04T09:26:04.108Z,102260.55
2023-04-04T09:28:36.697Z,102259.50
2023-04-04T09:31:10.407Z,102263.86
2023-04-04T09:33:42.291Z,102261.92
2023-04-04T09:36:16.569Z,102266.72
2023-04-04T09:38:48.916Z,102261.78
2023-04-04T09:41:21.423Z,102263.62
2023-04-04T09:43:54.633Z,102264.85
2023-04-04T09:46:27.178Z,102267.95
2023-04-04T09:48:58.430Z,102263.40
2023-04-04T09:51:37.071Z,102265.73
2023-04-04T09:54:12.855Z,102259.62
2023-04-04T09:56:46.922Z,102265.27
2023-04-04T09:59:18.045Z,102261.05
2023-04-04T10:01:51.216Z,102260.42
2023-04-04T10:04:24.663Z,102266.33
2023-04-04T10:06:56.622Z,102270.59
2023-04-04T10:09:27.072Z,102271.21
2023-04-04T10:12:10.669Z,102277.40
2023-04-04T10:14:41.854Z,102278.27
2023-04-04T10:17:13.413Z,102275.61
2023-04-04T10:19:44.218Z,102279.94
2023-04-04T10:22:15.399Z,102277.56
2023-04-04T10:24:46.655Z,102273.04
2023-04-04T10:27:17.480Z,102273.78
2023-04-04T10:29:48.489Z,102275.02
2023-04-04T10:32:25.283Z,102273.00
2023-04-04T10:35:03.504Z,102271.84
2023-04-04T10:37:39.226Z,102265.41
2023-04-04T10:40:14.698Z,102260.11
2023-04-04T10:42:48.174Z,102256.98
2023-04-04T10:45:21.587Z,102256.04
2023-04-04T10:47:54.094Z,102253.34
2023-04-04T10:50:27.075Z,102254.86
2023-04-04T10:52:59.806Z,102247.19
2023-04-04T10:55:31.870Z,102242.61
2023-04-04T10:58:03.859Z,102232.62
2023-04-04T11:00:34.815Z,102231.46
2023-04-04T11:03:05.727Z,102228.14
2023-04-04T11:05:42.108Z,102222.26
2023-04-04T11:08:20.082Z,102221.05
2023-04-04T11:10:52.908Z,102213.00
2023-04-04T11:13:29.332Z,102210.86
2023-04-04T11:16:01.219Z,102208.27
2023-04-04T11:19:00.323Z,102201.81
2023-04-04T11:21:34.809Z,102202.46
2023-04-04T11:24:17.667Z,102199.37
2023-04-04T11:26:48.432Z,102190.27
2023-04-04T11:29:44.812Z,102191.13
2023-04-04T11:32:53.017Z,102189.48
2023-04-04T11:35:30.748Z,102188.02
2023-04-04T11:38:04.625Z,102182.27
2023-04-04T11:40:40.108Z,102180.80
2023-04-04T11:43:16.967Z,102184.36
2023-04-04T11:45:48.044Z,102177.85
2023-04-04T11:48:20.305Z,102178.77
2023-04-04T11:50:51.775Z,102177.45
2023-04-04T11:53:22.860Z,102168.56
2023-04-04T11:55:56.490Z,102167.98
2023-04-04T11:58:29.539Z,102165.03
2023-04-04T12:01:00.277Z,102160.20
2023-04-04T12:03:31.871Z,102158.31
2023-04-04T12:06:02.996Z,102155.17
2023-04-04T12:08:34.224Z,102148.04
2023-04-04T12:11:10.704Z,102140.13
2023-04-04T12:13:45.875Z,102142.39
2023-04-04T12:16:16.282Z,102137.16
2023-04-04T12:18:47.156Z,102133.50
2023-04-04T12:21:17.714Z,102133.05
2023-04-04T12:23:49.784Z,102128.67
2023-04-04T12:26:21.164Z,102129.07
2023-04-04T12:28:53.376Z,102118.95
2023-04-04T12:31:24.274Z,102115.42
2023-04-04T12:33:54.972Z,102118.63
2023-04-04T12:36:27.500Z,102117.42
2023-04-04T12:39:07.591Z,102114.67
2023-04-04T12:41:48.183Z,102113.17
2023-04-04T12:44:30.441Z,102109.68
2023-04-04T12:47:02.338Z,102101.41
2023-04-04T12:49:33.792Z,102096.33
2023-04-04T12:52:07.596Z,102100.11
2023-04-04T12:54:41.593Z,102095.64
2023-04-04T12:57:14.489Z,102097.82
2023-04-04T12:59:48.103Z,102093.60
2023-04-04T13:02:22.099Z,102089.00
2023-04-04T13:04:55.996Z,102083.29
2023-04-04T13:07:28.888Z,102073.02
2023-04-04T13:10:02.608Z,102066.35
2023-04-04T13:12:58.410Z,102067.13
2023-04-04T13:15:54.443Z,102064.35
2023-04-04T13:18:26.823Z,102064.00
2023-04-04T13:20:57.207Z,102056.80
2023-04-04T13:23:27.851Z,102055.67
2023-04-04T13:25:59.482Z,102049.84
2023-04-04T13:28:30.576Z,102043.54
2023-04-04T13:31:04.554Z,102037.85
2023-04-04T13:33:35.559Z,102029.91
2023-04-04T13:36:07.186Z,102027.26
2023-04-04T13:38:37.544Z,102025.46
2023-04-04T13:41:07.865Z,102021.58
2023-04-04T13:43:38.172Z,102019.05
2023-04-04T13:46:08.610Z,102014.33
2023-04-04T13:48:39.950Z,102011.58
2023-04-04T13:51:10.843Z,102006.09
2023-04-04T13:53:41.521Z,102001.11
2023-04-04T13:58:45.809Z,101997.29
2023-04-04T14:01:16.698Z,101993.13
2023-04-04T14:03:48.340Z,101992.36
2023-04-04T14:06:19.519Z,101990.25
2023-04-04T14:08:49.941Z,101988.08
2023-04-04T14:11:20.945Z,101981.83
2023-04-04T14:13:52.181Z,101977.92
2023-04-04T14:16:23.498Z,101975.38
2023-04-04T14:18:54.318Z,101975.52
2023-04-04T14:21:25.222Z,101976.55
2023-04-04T14:23:55.948Z,101976.27
2023-04-04T14:26:27.066Z,101976.26
2023-04-04T14:28:57.433Z,101977.91
2023-04-04T14:31:27.871Z,101976.72
2023-04-04T14:33:58.281Z,101975.58
2023-04-04T14:36:28.612Z,101973.88
2023-04-04T14:38:59.194Z,101966.69
2023-04-04T14:41:30.010Z,101962.39
2023-04-04T14:44:00.756Z,101963.52
2023-04-04T14:46:33.953Z,101965.83
2023-04-04T14:49:06.254Z,101960.77
2023-04-04T14:51:36.883Z,101959.30
2023-04-04T14:54:07.312Z,101957.98
2023-04-04T14:56:38.053Z,101955.77
2023-04-04T14:59:08.601Z,101961.45
2023-04-04T15:01:39.069Z,101961.18
2023-04-04T15:04:11.559Z,101958.75
2023-04-04T15:06:43.394Z,101955.86
2023-04-04T15:09:14.395Z,101955.58
2023-04-04T15:11:44.731Z,101949.88
2023-04-04T15:14:15.031Z,101950.17
2023-04-04T15:16:45.755Z,101947.69
2023-04-04T15:19:16.377Z,101946.37
2023-04-04T15:21:47.646Z,101950.77
2023-04-04T15:24:17.973Z,101944.95
2023-04-04T15:26:49.162Z,101943.24
2023-04-04T15:29:19.506Z,101947.89
2023-04-04T15:31:50.529Z,101946.42
2023-04-04T15:34:21.073Z,101943.09
2023-04-04T15:36:52.258Z,101939.60
2023-04-04T15:39:23.083Z,101933.99
2023-04-04T15:41:54.064Z,101935.56
2023-04-04T15:44:24.476Z,101929.42
2023-04-04T15:46:55.041Z,101929.41
2023-04-04T15:49:25.875Z,101920.98
2023-04-04T15:51:56.555Z,101916.66
2023-04-04T15:54:28.897Z,101916.73
2023-04-04T15:56:59.271Z,101916.26
2023-04-04T15:59:31.844Z,101913.79
2023-04-04T16:02:05.201Z,101908.13
2023-04-04T16:04:36.744Z,101910.75
2023-04-04T16:07:07.269Z,101909.41
2023-04-04T16:09:37.648Z,101907.85
2023-04-04T16:12:08.475Z,101906.27
2023-04-04T16:14:39.019Z,101899.71
2023-04-04T16:17:09.811Z,101893.81
2023-04-04T16:19:40.128Z,101893.66
2023-04-04T16:22:10.781Z,101898.77
2023-04-04T16:24:41.205Z,101890.44
2023-04-04T16:27:11.946Z,101887.98
2023-04-04T16:29:42.654Z,101886.38
2023-04-04T16:32:12.995Z,101887.13
2023-04-04T16:34:43.285Z,101887.31
2023-04-04T16:37:15.677Z,101884.40
2023-04-04T16:39:47.061Z,101883.52
2023-04-04T16:42:19.339Z,101880.67
2023-04-04T16:44:49.909Z,101884.17
2023-04-04T16:47:20.646Z,101884.39
2023-04-04T16:49:51.188Z,101882.52
2023-04-04T16:52:21.850Z,101885.06
2023-04-04T16:55:10.233Z,101880.80
2023-04-04T16:57:41.123Z,101880.69
2023-04-04T17:00:13.891Z,101881.05
2023-04-04T17:02:46.166Z,101879.40
2023-04-04T17:05:17.226Z,101881.95
2023-04-04T17:07:47.568Z,101884.16
2023-04-04T17:10:19.289Z,101882.34
2023-04-04T17:12:49.725Z,101885.31
2023-04-04T17:15:20.093Z,101880.15
2023-04-04T17:17:50.764Z,101884.24
2023-04-04T17:20:21.912Z,101882.34
2023-04-04T17:22:53.955Z,101881.67
2023-04-04T17:25:28.834Z,101884.94
2023-04-04T17:27:59.525Z,101884.44
2023-04-04T17:30:31.236Z,101886.10
2023-04-04T17:33:02.122Z,101886.45
2023-04-04T17:35:32.868Z,101884.45
2023-04-04T17:38:03.217Z,101880.10
2023-04-04T17:40:36.319Z,101881.23
2023-04-04T17:43:06.637Z,101880.86
2023-04-04T17:45:37.416Z,101879.69
2023-04-04T17:48:07.899Z,101880.17
2023-04-04T17:50:39.015Z,101883.21
2023-04-04T17:53:09.934Z,101882.67
2023-04-04T17:55:40.912Z,101886.59
2023-04-04T17:58:12.070Z,101884.08
2023-04-04T18:00:43.312Z,101881.02
2023-04-04T18:03:14.600Z,101879.27
2023-04-04T18:05:46.099Z,101881.52
2023-04-04T18:08:16.670Z,101882.03
2023-04-04T18:10:47.438Z,101879.96
2023-04-04T18:13:18.268Z,101884.09
2023-04-04T18:15:50.178Z,101884.36
2023-04-04T18:18:21.486Z,101884.99
2023-04-04T18:20:52.755Z,101884.02
2023-04-04T18:23:24.223Z,101889.11
2023-04-04T18:25:54.829Z,101887.67
2023-04-04T18:28:25.969Z,101891.23
2023-04-04T18:30:57.020Z,101891.39
2023-04-04T18:33:28.063Z,101891.11
2023-04-04T18:35:59.974Z,101892.70
2023-04-04T18:38:30.966Z,101890.62
2023-04-04T18:41:01.589Z,101889.66
2023-04-04T18:43:32.077Z,101889.56
2023-04-04T18:46:05.538Z,101891.81
2023-04-04T18:48:36.802Z,101894.64
2023-04-04T18:51:07.925Z,101892.44
2023-04-04T18:53:38.289Z,101894.29
2023-04-04T18:56:08.731Z,101896.92
2023-04-04T18:58:39.141Z,101898.32
2023-04-04T19:01:09.614Z,101896.59
2023-04-04T19:03:46.901Z,101894.55
2023-04-04T19:06:18.157Z,101893.89
2023-04-04T19:08:49.673Z,101893.69
2023-04-04T19:11:20.368Z,101895.65
2023-04-04T19:13:50.759Z,101895.33
2023-04-04T19:16:21.498Z,101900.14
2023-04-04T19:18:51.936Z,101899.14
2023-04-04T19:21:22.256Z,101902.04
2023-04-04T19:23:53.091Z,101899.98
2023-04-04T19:26:23.779Z,101898.56
2023-04-04T19:28:54.208Z,101897.17
2023-04-04T19:31:29.858Z,101894.64
2023-04-04T19:34:03.412Z,101895.07
2023-04-04T19:36:37.280Z,101896.38
2023-04-04T19:39:10.890Z,101895.98
2023-04-04T19:41:42.002Z,101893.08
2023-04-04T19:44:21.222Z,101894.67
2023-04-04T19:46:54.490Z,101892.55
2023-04-04T19:49:30.513Z,101894.86
2023-04-04T19:52:04.354Z,101890.52
2023-04-04T19:54:41.550Z,101892.60
2023-04-04T19:57:19.449Z,101893.09
2023-04-04T20:00:13.245Z,101892.36
2023-04-04T20:03:01.567Z,101895.92
2023-04-04T20:05:59.200Z,101894.10
2023-04-04T20:08:37.399Z,101892.10
2023-04-04T20:11:09.029Z,101896.54
2023-04-04T20:13:40.336Z,101894.17
2023-04-04T20:16:12.952Z,101895.39
2023-04-04T20:18:46.093Z,101889.98
2023-04-04T20:21:17.769Z,101891.95
2023-04-04T20:23:53.717Z,101892.02
2023-04-04T20:26:58.240Z,101889.90
2023-04-04T20:29:30.270Z,101891.45
2023-04-04T20:32:03.296Z,101889.90
2023-04-04T20:34:38.747Z,101892.77
2023-04-04T20:37:13.460Z,101891.81
2023-04-04T20:39:48.551Z,101888.48
2023-04-04T20:42:34.011Z,101886.70
2023-04-04T20:45:34.788Z,101890.09
2023-04-04T20:48:07.812Z,101887.71
2023-04-04T20:50:55.368Z,101886.52
2023-04-04T20:53:27.519Z,101889.90
2023-04-04T20:55:58.104Z,101891.22
2023-04-04T20:58:32.876Z,101890.13
2023-04-04T21:01:04.010Z,101891.49
2023-04-04T21:03:38.910Z,101888.45
2023-04-04T21:06:17.488Z,101886.83
2023-04-04T21:08:51.905Z,101879.34
2023-04-04T21:11:27.143Z,101887.37
2023-04-04T21:13:58.251Z,101885.63
2023-04-04T21:16:30.123Z,101887.34
2023-04-04T21:19:02.675Z,101889.39
2023-04-04T21:21:33.784Z,101889.11
2023-04-04T21:24:09.970Z,101889.57
2023-04-04T21:26:41.637Z,101892.40
2023-04-04T21:29:20.138Z,101889.40
2023-04-04T21:31:52.453Z,101888.14
2023-04-04T21:34:25.081Z,101885.65
2023-04-04T21:36:57.396Z,101880.13
2023-04-04T21:39:29.711Z,101879.52
2023-04-04T21:42:03.610Z,101875.55
2023-04-04T21:44:35.203Z,101872.00
2023-04-04T21:47:06.549Z,101868.15
2023-04-04T21:49:37.006Z,101866.38
2023-04-04T21:52:07.674Z,101865.95
2023-04-04T21:54:38.226Z,101862.73
2023-04-04T21:57:08.599Z,101862.87
2023-04-04T21:59:39.250Z,101859.09
2023-04-04T22:02:10.382Z,101859.08
2023-04-04T22:04:40.795Z,101858.62
2023-04-04T22:07:12.105Z,101858.08
2023-04-04T22:09:42.933Z,101859.67
2023-04-04T22:12:15.751Z,101855.04
2023-04-04T22:14:50.577Z,101853.17
2023-04-04T22:17:23.856Z,101850.50
2023-04-04T22:19:59.730Z,101851.57
2023-04-04T22:22:31.356Z,101854.17
2023-04-04T22:25:07.023Z,101851.31
2023-04-04T22:27:37.999Z,101849.60
2023-04-04T22:30:10.606Z,101847.03
2023-04-04T22:32:43.915Z,101850.05
2023-04-04T22:35:14.632Z,101850.88
2023-04-04T22:37:46.246Z,101850.84
2023-04-04T22:40:16.821Z,101850.34
2023-04-04T22:42:47.220Z,101843.98
2023-04-04T22:45:18.435Z,101847.17
2023-04-04T22:47:49.412Z,101848.95
2023-04-04T22:50:23.346Z,101847.30
2023-04-04T22:52:54.744Z,101846.72
2023-04-04T22:55:26.873Z,101848.52
2023-04-04T22:57:57.326Z,101849.71
2023-04-04T23:00:27.807Z,101850.96
2023-04-04T23:02:58.397Z,101844.42
2023-04-04T23:05:29.309Z,101843.27
2023-04-04T23:08:04.286Z,101841.05
2023-04-04T23:10:34.808Z,101841.20
2023-04-04T23:13:05.970Z,101841.37
2023-04-04T23:15:37.931Z,101839.33
2023-04-04T23:18:09.186Z,101838.70
2023-04-04T23:20:39.926Z,101841.30
2023-04-04T23:23:10.510Z,101837.67
2023-04-04T23:25:41.314Z,101836.23
2023-04-04T23:28:12.410Z,101838.14
2023-04-04T23:30:42.936Z,101837.23
2023-04-04T23:33:15.475Z,101839.02
2023-04-04T23:35:46.667Z,101834.69
2023-04-04T23:38:17.199Z,101829.71
2023-04-04T23:40:47.577Z,101823.25
2023-04-04T23:43:18.281Z,101821.31
2023-04-04T23:45:49.004Z,101818.14
2023-04-04T23:48:19.670Z,101813.52
2023-04-04T23:50:54.224Z,101813.51
2023-04-04T23:53:25.823Z,101818.38
2023-04-04T23:55:56.346Z,101818.91
2023-04-04T23:58:27.402Z,101812.50
